Time;durP1;ratioP1;P1;durP2;ratioP2;P2;SDS_P1;SDS_P2;PMS_P1;PMS_P2;Temp;Humidity;BMP_temperature;BMP_pressure;BME280_temperature;BME280_humidity;BME280_pressure;Samples;Min_cycle;Max_cycle;Signal;HPM_P1;HPM_P2
2021/12/20 00:00:47;;;;;;;36.17;20.40;;;;;;;3.99;93.85;102584.19;10466778;28;20526;-92
2021/12/20 00:05:47;;;;;;;37.08;21.15;;;;;;;4.09;94.12;102579.19;10463938;28;20028;-91
2021/12/20 00:10:48;;;;;;;38.28;19.60;;;;;;;4.08;93.49;102575.66;10499218;28;20082;-91
2021/12/20 00:15:49;;;;;;;30.55;18.50;;;;;;;4.03;94.10;102576.88;10498757;28;20114;-91
2021/12/20 00:20:50;;;;;;;28.63;18.42;;;;;;;4.08;93.75;102586.03;10481191;28;20029;-91
2021/12/20 00:25:50;;;;;;;29.10;17.15;;;;;;;4.06;94.00;102563.31;10464847;28;20024;-92
2021/12/20 00:30:51;;;;;;;37.30;21.27;;;;;;;4.10;93.54;102562.88;10448261;28;20076;-92
2021/12/20 00:35:51;;;;;;;27.95;17.08;;;;;;;4.00;93.53;102561.00;10498280;28;20036;-92
2021/12/20 00:40:52;;;;;;;26.55;17.95;;;;;;;3.99;93.68;102560.88;10479614;28;20108;-92
2021/12/20 00:45:52;;;;;;;26.08;15.82;;;;;;;3.94;93.42;102558.72;10497128;28;20017;-92
2021/12/20 00:50:53;;;;;;;32.67;15.63;;;;;;;3.96;93.72;102564.06;10479245;28;20036;-92
2021/12/20 00:55:53;;;;;;;27.27;15.07;;;;;;;3.93;93.80;102561.16;10497469;28;20426;-92
2021/12/20 01:00:58;;;;;;;23.10;13.23;;;;;;;3.94;93.50;102562.97;10496697;28;20520;-92
2021/12/20 01:05:59;;;;;;;26.67;14.80;;;;;;;3.94;93.83;102560.38;10495267;28;20059;-92
2021/12/20 01:11:01;;;;;;;23.38;15.00;;;;;;;3.91;93.92;102562.66;10479379;28;20603;-92
2021/12/20 01:16:05;;;;;;;23.83;14.70;;;;;;;3.91;93.64;102552.31;10496031;28;20092;-92
2021/12/20 01:21:06;;;;;;;23.80;12.10;;;;;;;3.96;93.39;102554.63;10495815;28;20746;-92
2021/12/20 01:26:06;;;;;;;22.98;12.88;;;;;;;3.99;93.64;102558.28;10479038;28;20036;-91
2021/12/20 01:31:07;;;;;;;24.65;10.65;;;;;;;4.01;93.45;102562.84;10461467;28;20049;-92
2021/12/20 01:36:07;;;;;;;16.60;9.93;;;;;;;4.13;92.74;102562.25;10443568;28;20132;-92
2021/12/20 01:41:09;;;;;;;22.70;9.48;;;;;;;4.16;92.26;102562.56;10462422;28;20112;-92
2021/12/20 01:46:10;;;;;;;;;;;;;;;4.09;92.55;102553.28;10480356;28;20490;-92
2021/12/20 01:56:17;;;;;;;19.95;8.60;;;;;;;4.04;91.70;102555.38;10477511;28;20090;-91
2021/12/20 02:01:21;;;;;;;21.10;10.98;;;;;;;3.90;91.64;102542.69;10478346;28;20063;-92
2021/12/20 02:11:24;;;;;;;18.75;7.20;;;;;;;3.75;91.95;102544.66;10510710;28;20048;-91
2021/12/20 02:16:25;;;;;;;14.55;7.82;;;;;;;3.72;91.57;102553.00;10483337;28;20105;-91
2021/12/20 02:21:25;;;;;;;19.52;8.55;;;;;;;3.67;92.51;102549.03;10483477;28;20483;-91
2021/12/20 02:26:26;;;;;;;21.02;9.82;;;;;;;3.66;92.75;102544.63;10501850;28;20043;-91
2021/12/20 02:42:15;;;;;;;22.85;9.35;;;;;;;3.61;92.17;102540.63;10487777;28;20458;-92
2021/12/20 02:47:28;;;;;;;23.52;7.20;;;;;;;3.70;92.64;102540.69;10485013;28;20105;-91
2021/12/20 02:52:29;;;;;;;18.77;7.22;;;;;;;3.73;91.63;102541.91;10502345;28;20170;-92
2021/12/20 02:57:29;;;;;;;29.52;9.20;;;;;;;3.73;91.23;102530.63;10502382;28;20165;-91
2021/12/20 03:02:30;;;;;;;11.43;4.68;;;;;;;3.70;90.77;102541.59;10485416;28;20024;-92
2021/12/20 03:07:38;;;;;;;20.05;6.38;;;;;;;3.69;91.03;102544.94;10501840;28;20067;-92
2021/12/20 03:12:39;;;;;;;17.25;5.85;;;;;;;3.82;89.71;102536.75;10500880;28;20043;-92
2021/12/20 03:17:39;;;;;;;14.45;6.05;;;;;;;3.77;89.15;102538.84;10500639;28;20033;-92
2021/12/20 03:22:41;;;;;;;50.47;9.27;;;;;;;3.72;89.27;102537.47;10466050;28;20036;-92
2021/12/20 03:27:42;;;;;;;12.70;5.03;;;;;;;3.69;89.62;102537.16;10500472;28;20512;-91
2021/12/20 03:32:42;;;;;;;16.92;6.20;;;;;;;3.58;89.48;102540.31;10498612;28;20266;-91
2021/12/20 03:37:43;;;;;;;14.50;4.70;;;;;;;3.51;90.06;102536.22;10484459;28;20032;-91
2021/12/20 03:42:45;;;;;;;17.08;5.28;;;;;;;3.62;90.45;102539.88;10483040;28;20116;-91
2021/12/20 03:47:45;;;;;;;11.73;4.38;;;;;;;3.95;87.81;102541.50;10500201;28;20048;-91
2021/12/20 03:52:46;;;;;;;18.50;5.25;;;;;;;4.05;86.87;102536.47;10465789;28;20037;-91
2021/12/20 03:57:47;;;;;;;18.73;5.25;;;;;;;4.03;86.93;102537.09;10481859;28;20059;-91
2021/12/20 04:02:48;;;;;;;17.05;5.93;;;;;;;3.90;87.77;102527.16;10481090;28;20025;-91
2021/12/20 04:07:48;;;;;;;16.92;5.75;;;;;;;3.77;87.76;102528.50;10498125;28;20029;-92
2021/12/20 04:12:49;;;;;;;27.95;6.72;;;;;;;3.57;88.00;102531.66;10481036;28;20051;-91
2021/12/20 04:17:49;;;;;;;16.20;5.50;;;;;;;3.47;88.92;102541.81;10465072;28;20060;-91
2021/12/20 04:22:50;;;;;;;18.42;6.53;;;;;;;3.37;89.86;102535.69;10497260;28;20047;-92
2021/12/20 04:27:50;;;;;;;17.88;6.47;;;;;;;3.33;90.46;102541.31;10498761;28;20108;-91
2021/12/20 04:32:51;;;;;;;17.10;5.82;;;;;;;3.30;90.66;102540.06;10479632;28;20399;-92
2021/12/20 04:37:52;;;;;;;20.77;7.05;;;;;;;3.24;90.81;102555.88;10497117;28;20552;-92
2021/12/20 04:42:57;;;;;;;18.52;7.43;;;;;;;3.18;91.40;102543.19;10481266;28;20025;-90
2021/12/20 04:47:58;;;;;;;11.57;5.10;;;;;;;3.19;91.56;102552.78;10479960;28;20028;-91
2021/12/20 04:52:58;;;;;;;24.95;7.25;;;;;;;3.12;91.48;102545.16;10446008;28;20469;-91
2021/12/20 04:57:59;;;;;;;18.35;6.72;;;;;;;3.08;91.58;102546.50;10463154;28;20071;-92
2021/12/20 05:03:00;;;;;;;19.92;6.13;;;;;;;3.04;91.63;102553.78;10479803;28;20457;-92
2021/12/20 05:08:01;;;;;;;23.23;7.03;;;;;;;3.02;91.87;102563.97;10477825;28;20033;-91
2021/12/20 05:13:08;;;;;;;12.95;6.95;;;;;;;3.01;91.89;102558.63;10462155;28;20070;-92
2021/12/20 05:18:09;;;;;;;27.38;6.93;;;;;;;2.98;91.31;102558.31;10437343;28;20054;-91
2021/12/20 05:23:09;;;;;;;15.57;6.47;;;;;;;2.93;92.25;102553.56;10489155;28;20107;-90
2021/12/20 05:28:10;;;;;;;26.30;7.63;;;;;;;2.92;92.64;102545.66;10486663;28;20515;-92
2021/12/20 05:33:10;;;;;;;19.45;7.38;;;;;;;2.90;92.51;102548.06;10493911;28;20037;-91
2021/12/20 05:38:11;;;;;;;200.25;115.68;;;;;;;2.90;92.52;102540.31;10477754;28;20075;-90
2021/12/20 05:43:11;;;;;;;27.05;11.15;;;;;;;2.89;92.80;102541.06;10506318;28;20455;-90
2021/12/20 05:48:12;;;;;;;19.23;9.77;;;;;;;2.89;92.16;102546.22;10492287;28;20036;-88
2021/12/20 05:53:12;;;;;;;18.08;6.82;;;;;;;2.89;92.32;102545.34;10473221;28;20083;-86
2021/12/20 05:58:13;;;;;;;17.83;7.85;;;;;;;2.98;92.92;102553.13;10493085;28;20040;-87
2021/12/20 06:03:13;;;;;;;19.52;7.82;;;;;;;2.94;93.06;102560.56;10474907;28;20031;-88
2021/12/20 06:08:14;;;;;;;18.42;7.63;;;;;;;2.92;92.37;102561.19;10469348;28;20455;-91
2021/12/20 06:13:14;;;;;;;18.65;8.98;;;;;;;2.83;92.04;102560.19;10477817;28;20152;-91
2021/12/20 06:18:15;;;;;;;29.55;9.00;;;;;;;2.80;92.33;102565.94;10453788;28;20031;-91
2021/12/20 06:23:15;;;;;;;27.15;7.85;;;;;;;2.75;92.54;102580.06;10493627;28;20063;-86
2021/12/20 06:28:16;;;;;;;21.25;6.05;;;;;;;2.73;92.85;102571.22;10494231;28;20472;-92
2021/12/20 06:33:16;;;;;;;16.42;7.65;;;;;;;2.70;92.83;102573.47;10460951;28;20133;-91
2021/12/20 06:38:20;;;;;;;19.83;7.20;;;;;;;2.70;92.93;102579.59;10477691;28;20032;-92
2021/12/20 06:43:20;;;;;;;18.50;6.32;;;;;;;2.70;93.01;102578.66;10491664;28;20021;-92
2021/12/20 06:48:21;;;;;;;18.63;5.90;;;;;;;2.67;93.02;102576.66;10445761;28;20520;-89
2021/12/20 06:53:21;;;;;;;15.80;6.90;;;;;;;2.65;93.08;102580.75;10435013;28;20124;-90
2021/12/20 06:58:23;;;;;;;18.02;6.45;;;;;;;2.62;92.75;102585.59;10467297;28;20075;-89
2021/12/20 07:03:24;;;;;;;20.52;7.13;;;;;;;2.61;93.07;102587.25;10443903;28;20033;-90
2021/12/20 07:08:24;;;;;;;20.75;9.07;;;;;;;2.53;92.92;102576.84;10458762;28;20100;-88
2021/12/20 07:13:25;;;;;;;22.95;6.00;;;;;;;2.48;93.22;102584.09;10458088;28;20477;-91
2021/12/20 07:18:25;;;;;;;22.33;7.13;;;;;;;2.51;92.88;102591.28;10447223;28;20120;-92
2021/12/20 07:23:26;;;;;;;25.02;7.80;;;;;;;2.47;93.24;102593.53;10463796;28;20017;-92
2021/12/20 07:28:26;;;;;;;17.75;8.15;;;;;;;2.44;93.25;102594.84;10458527;28;20547;-92
2021/12/20 07:33:27;;;;;;;17.17;7.00;;;;;;;2.43;93.35;102601.72;10442064;28;20106;-94
2021/12/20 07:38:27;;;;;;;25.88;8.13;;;;;;;2.49;93.04;102607.53;10458844;28;20392;-93
2021/12/20 07:43:28;;;;;;;30.67;7.05;;;;;;;2.49;92.73;102602.38;10459943;28;20115;-92
2021/12/20 07:48:28;;;;;;;28.55;8.60;;;;;;;2.46;93.35;102608.88;10473620;28;20052;-92
2021/12/20 07:53:29;;;;;;;31.88;7.72;;;;;;;2.52;93.08;102609.53;10440623;28;20043;-92
2021/12/20 07:58:29;;;;;;;22.45;7.40;;;;;;;2.52;93.18;102609.53;10422437;28;20124;-92
2021/12/20 08:03:30;;;;;;;24.30;11.95;;;;;;;2.54;93.50;102607.13;10443537;28;20052;-92
2021/12/20 08:08:31;;;;;;;18.73;6.63;;;;;;;2.54;93.20;102607.13;10439817;28;20021;-92
2021/12/20 08:13:32;;;;;;;21.45;7.28;;;;;;;2.60;93.11;102612.97;10455480;28;20482;-92
2021/12/20 08:18:32;;;;;;;23.13;5.77;;;;;;;2.68;93.21;102614.69;10473471;28;20044;-92
2021/12/20 08:23:33;;;;;;;22.80;8.82;;;;;;;2.74;93.11;102622.19;10456490;28;20067;-93
2021/12/20 08:28:35;;;;;;;20.77;8.10;;;;;;;2.78;93.29;102621.75;10458755;28;20041;-91
2021/12/20 08:33:36;;;;;;;29.85;7.07;;;;;;;2.86;93.31;102626.09;10457795;28;20076;-93
2021/12/20 08:38:36;;;;;;;23.23;6.88;;;;;;;2.93;93.17;102618.22;10457706;28;20040;-93
2021/12/20 08:43:38;;;;;;;19.40;7.75;;;;;;;3.07;93.29;102632.66;10458032;28;20112;-92
2021/12/20 08:48:38;;;;;;;25.20;8.17;;;;;;;3.19;93.27;102629.53;10455485;28;20430;-92
2021/12/20 08:53:40;;;;;;;29.20;8.20;;;;;;;3.37;92.90;102621.13;10423149;28;20074;-92
2021/12/20 08:58:40;;;;;;;30.63;8.32;;;;;;;3.53;92.24;102631.38;10439721;28;20032;-92
2021/12/20 09:03:41;;;;;;;21.55;7.07;;;;;;;3.69;92.10;102632.09;10421812;28;20444;-91
2021/12/20 09:08:42;;;;;;;16.30;7.53;;;;;;;3.95;91.51;102627.00;10439037;28;20032;-91
2021/12/20 09:13:43;;;;;;;14.93;5.23;;;;;;;4.17;91.78;102634.38;10438389;28;20151;-92
2021/12/20 09:18:43;;;;;;;19.58;5.80;;;;;;;4.50;88.06;102635.94;10437647;28;20465;-92
2021/12/20 09:23:44;;;;;;;24.15;5.53;;;;;;;4.68;85.51;102635.19;10456037;28;20127;-90
2021/12/20 09:28:44;;;;;;;13.45;6.10;;;;;;;4.88;84.73;102636.28;10454131;28;20060;-91
2021/12/20 09:33:45;;;;;;;19.08;6.10;;;;;;;5.24;80.19;102639.75;10453056;28;20500;-91
2021/12/20 09:38:46;;;;;;;20.38;7.45;;;;;;;5.40;78.35;102647.34;10454680;28;20040;-90
2021/12/20 09:43:48;;;;;;;11.50;5.27;;;;;;;5.38;78.15;102651.47;10420882;28;20020;-89
2021/12/20 09:48:49;;;;;;;22.50;6.68;;;;;;;5.13;79.16;102656.84;10436077;28;20280;-89
2021/12/20 09:53:50;;;;;;;17.98;4.95;;;;;;;5.45;78.29;102651.31;10419896;28;20465;-89
2021/12/20 09:58:55;;;;;;;23.63;7.00;;;;;;;5.62;77.07;102665.00;10453985;28;20052;-90
2021/12/20 10:03:56;;;;;;;20.58;8.23;;;;;;;5.62;77.01;102659.81;10470376;28;20033;-90
2021/12/20 10:09:03;;;;;;;20.23;7.00;;;;;;;6.48;75.68;102656.69;10469315;28;20025;-89
2021/12/20 10:14:08;;;;;;;15.70;5.43;;;;;;;6.30;73.56;102655.88;10467780;28;20476;-89
2021/12/20 10:19:29;;;;;;;15.70;5.55;;;;;;;5.94;74.78;102660.31;10471008;28;20050;-90
2021/12/20 10:24:34;;;;;;;19.50;5.53;;;;;;;6.96;73.78;102662.75;10452006;28;20041;-90
2021/12/20 10:29:36;;;;;;;20.42;7.35;;;;;;;8.47;66.77;102648.06;10468519;28;20642;-89
2021/12/20 10:34:36;;;;;;;21.23;5.50;;;;;;;9.43;63.24;102650.75;10469529;28;20451;-89
2021/12/20 10:39:41;;;;;;;28.27;7.15;;;;;;;8.88;63.19;102653.28;10445342;28;20069;-89
2021/12/20 10:44:41;;;;;;;22.40;9.45;;;;;;;8.44;65.79;102653.94;10460136;28;20396;-88
2021/12/20 10:49:42;;;;;;;24.88;8.75;;;;;;;9.23;63.96;102649.13;10443223;28;20112;-89
2021/12/20 10:54:42;;;;;;;26.17;9.80;;;;;;;10.17;58.63;102645.22;10460320;28;20094;-89
2021/12/20 10:59:44;;;;;;;25.90;8.60;;;;;;;9.48;59.34;102636.38;10442847;28;20025;-90
2021/12/20 11:04:51;;;;;;;30.60;9.30;;;;;;;8.65;62.83;102641.84;10442823;28;20048;-90
2021/12/20 11:09:55;;;;;;;28.05;11.77;;;;;;;8.45;63.78;102644.44;10428358;28;20443;-90
2021/12/20 11:14:56;;;;;;;26.33;9.80;;;;;;;8.29;62.67;102636.97;10442947;28;20033;-88
2021/12/20 11:19:57;;;;;;;18.35;10.02;;;;;;;8.37;64.36;102636.84;10460142;28;20031;-87
2021/12/20 11:24:58;;;;;;;32.10;10.85;;;;;;;9.98;58.72;102630.69;10458518;28;20044;-92
2021/12/20 11:30:00;;;;;;;24.75;10.55;;;;;;;9.57;57.46;102632.66;10460803;28;20384;-92
2021/12/20 11:35:01;;;;;;;27.15;11.88;;;;;;;8.89;60.57;102642.06;10425802;28;20396;-92
2021/12/20 11:40:04;;;;;;;50.78;11.93;;;;;;;9.11;59.10;102630.75;10426246;28;20067;-91
2021/12/20 11:45:08;;;;;;;26.20;10.30;;;;;;;8.87;61.36;102632.25;10458741;28;20052;-92
2021/12/20 11:50:15;;;;;;;25.00;11.07;;;;;;;8.37;61.35;102631.63;10422214;28;20032;-92
2021/12/20 11:55:27;;;;;;;19.90;10.68;;;;;;;6.68;64.48;102635.09;10461597;28;20024;-91
2021/12/20 12:00:32;;;;;;;26.05;11.07;;;;;;;5.76;67.75;102630.88;10427158;28;20025;-92
2021/12/20 12:05:57;;;;;;;28.33;13.43;;;;;;;5.21;70.80;102636.88;10456761;28;20112;-91
2021/12/20 12:11:04;;;;;;;25.58;11.57;;;;;;;4.82;73.19;102635.66;10431826;28;20029;-91
2021/12/20 12:16:15;;;;;;;25.70;9.57;;;;;;;4.65;74.81;102632.31;10451250;28;20111;-89
2021/12/20 12:21:31;;;;;;;27.67;10.75;;;;;;;4.59;75.79;102628.19;10448167;28;20044;-90
2021/12/20 12:26:36;;;;;;;32.03;11.52;;;;;;;4.51;77.27;102624.81;10456883;28;20033;-90
2021/12/20 12:31:49;;;;;;;27.70;10.20;;;;;;;5.70;75.17;102617.28;10471891;28;20048;-90
2021/12/20 12:36:50;;;;;;;28.48;11.82;;;;;;;5.85;75.07;102623.06;10469753;28;20068;-88
2021/12/20 12:42:00;;;;;;;31.45;11.13;;;;;;;5.93;74.60;102626.38;10454762;28;20040;-87
2021/12/20 12:47:12;;;;;;;29.35;11.65;;;;;;;5.84;74.88;102621.22;10473589;28;20480;-89
2021/12/20 12:52:15;;;;;;;42.95;15.38;;;;;;;5.57;74.39;102620.41;10414244;28;20467;-89
2021/12/20 12:57:16;;;;;;;32.72;11.95;;;;;;;5.22;74.73;102615.31;10455369;28;20512;-88
2021/12/20 13:02:20;;;;;;;22.52;8.85;;;;;;;5.14;75.33;102614.56;10455288;28;20120;-89
2021/12/20 13:07:22;;;;;;;35.65;9.85;;;;;;;6.44;70.99;102608.66;10440591;28;20074;-90
2021/12/20 13:17:41;;;;;;;32.28;12.13;;;;;;;7.09;66.78;102620.50;10434999;28;20131;-89
2021/12/20 13:22:54;;;;;;;26.27;10.70;;;;;;;7.72;62.70;102605.25;10469872;28;20036;-89
2021/12/20 13:27:58;;;;;;;23.55;9.15;;;;;;;7.25;63.99;102610.69;10449984;28;20063;-87
2021/12/20 13:32:58;;;;;;;34.50;10.90;;;;;;;7.01;64.45;102610.31;10435384;28;20053;-87
2021/12/20 13:38:13;;;;;;;24.42;9.70;;;;;;;6.95;66.28;102612.34;10459806;28;20041;-90
2021/12/20 13:43:18;;;;;;;19.05;8.55;;;;;;;8.05;63.46;102595.91;10433954;28;20068;-91
2021/12/20 13:48:19;;;;;;;25.58;13.18;;;;;;;8.12;61.01;102597.31;10453839;28;20033;-89
2021/12/20 13:53:32;;;;;;;22.63;9.50;;;;;;;7.59;63.42;102600.63;10453713;28;20499;-92
2021/12/20 13:58:32;;;;;;;27.05;10.70;;;;;;;7.39;63.14;102598.91;10450666;28;20029;-88
2021/12/20 14:03:37;;;;;;;24.88;10.68;;;;;;;6.93;64.05;102606.09;10433690;28;20083;-91
2021/12/20 14:08:38;;;;;;;27.95;9.48;;;;;;;6.37;66.99;102605.34;10449702;28;20033;-91
2021/12/20 14:13:38;;;;;;;23.00;9.38;;;;;;;5.65;68.73;102605.56;10469994;28;20116;-90
2021/12/20 14:18:39;;;;;;;29.65;9.57;;;;;;;4.73;72.08;102609.75;10453207;28;20025;-90
2021/12/20 14:23:49;;;;;;;28.52;12.52;;;;;;;4.11;75.04;102606.16;10450871;28;20093;-89
2021/12/20 14:28:51;;;;;;;22.00;11.18;;;;;;;3.62;76.30;102597.78;10452684;28;20039;-89
2021/12/20 14:33:53;;;;;;;28.00;12.13;;;;;;;3.25;77.91;102601.72;10450071;28;20037;-89
2021/12/20 14:38:54;;;;;;;19.45;9.82;;;;;;;2.87;78.90;102609.81;10453184;28;20037;-91
2021/12/20 14:43:56;;;;;;;27.30;10.67;;;;;;;2.54;79.55;102600.28;10452001;28;20021;-89
2021/12/20 14:49:11;;;;;;;24.95;12.35;;;;;;;2.20;80.59;102606.94;10451777;28;20385;-90
2021/12/20 14:54:23;;;;;;;24.25;10.18;;;;;;;1.87;82.21;102608.59;10436430;28;20029;-91
2021/12/20 14:59:28;;;;;;;27.70;12.43;;;;;;;1.67;84.27;102608.03;10434012;28;20024;-89
2021/12/20 15:04:28;;;;;;;30.58;9.50;;;;;;;1.48;84.15;102600.81;10430992;28;20032;-89
2021/12/20 15:09:29;;;;;;;34.60;14.32;;;;;;;1.32;85.52;102605.91;10433460;28;20545;-89
2021/12/20 15:14:29;;;;;;;35.08;13.48;;;;;;;1.15;85.38;102607.47;10448553;28;20489;-88
2021/12/20 15:19:30;;;;;;;54.15;12.18;;;;;;;0.90;86.00;102613.16;10434118;28;20025;-88
2021/12/20 15:24:31;;;;;;;29.42;13.82;;;;;;;0.58;85.81;102611.31;10475058;28;20548;-89
2021/12/20 15:29:31;;;;;;;29.52;12.93;;;;;;;0.28;86.88;102615.63;10460142;28;20036;-90
2021/12/20 15:34:32;;;;;;;32.80;13.82;;;;;;;0.05;87.46;102612.00;10474458;28;20500;-87
2021/12/20 15:39:32;;;;;;;30.05;13.45;;;;;;;-0.06;87.87;102609.06;10475584;28;20029;-89
2021/12/20 15:44:33;;;;;;;39.92;15.30;;;;;;;-0.26;88.03;102616.09;10457217;28;20095;-91
2021/12/20 15:49:33;;;;;;;23.77;13.02;;;;;;;-0.46;88.68;102612.03;10424176;28;20124;-91
2021/12/20 15:54:34;;;;;;;57.67;30.92;;;;;;;-0.70;88.52;102618.66;10424904;28;20473;-89
2021/12/20 15:59:34;;;;;;;33.15;15.45;;;;;;;-0.82;89.17;102614.59;10458396;28;20456;-93
2021/12/20 16:04:35;;;;;;;46.05;18.60;;;;;;;-1.08;89.33;102605.56;10426132;28;20044;-91
2021/12/20 16:09:36;;;;;;;36.03;15.60;;;;;;;-1.26;88.68;102608.44;10441044;28;20110;-90
2021/12/20 16:14:36;;;;;;;30.65;14.48;;;;;;;-1.28;88.95;102607.31;10458312;28;20061;-89
2021/12/20 16:19:37;;;;;;;34.88;17.67;;;;;;;-1.38;89.29;102608.75;10406149;28;20135;-90
2021/12/20 16:24:37;;;;;;;41.85;18.08;;;;;;;-1.43;89.09;102608.91;10459119;28;20067;-91
2021/12/20 16:29:38;;;;;;;38.00;18.20;;;;;;;-1.56;89.11;102609.94;10469350;28;20039;-90
2021/12/20 16:34:39;;;;;;;29.30;13.65;;;;;;;-1.69;89.24;102607.50;10496340;28;20131;-90
2021/12/20 16:39:39;;;;;;;24.58;13.00;;;;;;;-1.78;90.22;102606.38;10460765;28;20040;-91
2021/12/20 16:44:40;;;;;;;22.45;10.90;;;;;;;-1.90;89.72;102617.66;10458622;28;20086;-91
2021/12/20 16:49:40;;;;;;;28.50;11.40;;;;;;;-2.02;90.10;102612.81;10443748;28;20064;-90
2021/12/20 16:54:41;;;;;;;20.30;11.40;;;;;;;-2.05;89.99;102616.63;10456572;28;20052;-91
2021/12/20 16:59:42;;;;;;;29.67;15.02;;;;;;;-2.15;89.74;102620.59;10460410;28;20484;-88
2021/12/20 17:04:43;;;;;;;34.55;15.77;;;;;;;-2.26;90.21;102621.81;10468460;28;20039;-88
2021/12/20 17:09:47;;;;;;;29.88;14.38;;;;;;;-2.29;90.39;102626.56;10447717;28;20040;-86
2021/12/20 17:14:51;;;;;;;28.13;16.67;;;;;;;-2.37;90.14;102622.09;10428525;28;20060;-81
2021/12/20 17:19:55;;;;;;;32.92;16.38;;;;;;;-2.33;90.52;102620.81;10418402;28;20041;-85
2021/12/20 17:24:55;;;;;;;37.55;14.07;;;;;;;-2.33;90.68;102619.19;10423454;28;20488;-87
2021/12/20 17:29:56;;;;;;;22.17;10.45;;;;;;;-2.39;90.24;102619.31;10419069;28;20112;-87
2021/12/20 17:34:56;;;;;;;24.95;10.13;;;;;;;-2.43;90.52;102634.13;10453623;28;20099;-86
2021/12/20 17:39:57;;;;;;;32.67;15.10;;;;;;;-2.40;91.05;102634.53;10452857;28;20033;-86
2021/12/20 17:44:57;;;;;;;27.25;14.15;;;;;;;-2.48;90.74;102620.69;10451611;28;20031;-86
2021/12/20 17:49:58;;;;;;;22.20;11.18;;;;;;;-2.57;90.62;102632.34;10450945;28;20033;-86
2021/12/20 17:54:58;;;;;;;20.83;10.98;;;;;;;-2.64;91.58;102635.78;10450529;28;20060;-88
2021/12/20 17:59:59;;;;;;;23.27;12.65;;;;;;;-2.71;90.87;102630.59;10450693;28;20056;-86
2021/12/20 18:05:00;;;;;;;36.45;17.27;;;;;;;-2.63;91.54;102632.50;10434384;28;20021;-88
2021/12/20 18:10:02;;;;;;;44.60;16.45;;;;;;;-2.87;91.73;102641.41;10468734;28;20025;-80
2021/12/20 18:15:03;;;;;;;35.08;16.00;;;;;;;-3.05;91.43;102644.13;10467272;28;20033;-82
2021/12/20 18:20:05;;;;;;;38.80;17.13;;;;;;;-3.15;91.07;102652.25;10436396;28;20036;-83
2021/12/20 18:25:05;;;;;;;31.83;19.95;;;;;;;-3.28;91.38;102648.06;10465734;28;20082;-83
2021/12/20 18:30:07;;;;;;;25.10;13.93;;;;;;;-3.32;91.05;102643.25;10453401;28;20440;-84
2021/12/20 18:35:07;;;;;;;23.90;13.60;;;;;;;-3.34;91.66;102638.66;10453577;28;20099;-83
2021/12/20 18:40:10;;;;;;;89.37;19.53;;;;;;;-3.15;91.25;102645.50;10453233;28;20395;-83
2021/12/20 18:45:10;;;;;;;16.38;9.82;;;;;;;-3.02;91.62;102645.44;10453969;28;20116;-84
2021/12/20 18:50:11;;;;;;;28.38;14.13;;;;;;;-3.13;91.76;102648.25;10453558;28;20108;-84
2021/12/20 18:55:12;;;;;;;19.53;10.50;;;;;;;-3.24;92.02;102649.41;10452806;28;20451;-84
2021/12/20 19:00:15;;;;;;;27.55;14.40;;;;;;;-3.44;91.81;102654.44;10461123;28;20082;-83
2021/12/20 19:05:20;;;;;;;29.02;14.70;;;;;;;-3.51;91.40;102656.91;10458925;28;20057;-84
2021/12/20 19:10:25;;;;;;;35.78;15.88;;;;;;;-3.46;92.20;102650.75;10443732;28;20052;-84
2021/12/20 19:15:29;;;;;;;34.80;14.70;;;;;;;-3.46;92.60;102658.44;10463052;28;20032;-79
2021/12/20 19:20:30;;;;;;;35.03;15.37;;;;;;;-3.61;92.61;102650.56;10482583;28;20028;-79
2021/12/20 19:25:34;;;;;;;24.38;13.32;;;;;;;-3.71;91.98;102652.63;10471804;28;20051;-78
2021/12/20 19:30:35;;;;;;;51.67;17.52;;;;;;;-3.62;92.51;102655.50;10476909;28;20562;-80
2021/12/20 19:35:35;;;;;;;40.73;18.50;;;;;;;-3.66;92.37;102661.81;10482523;28;20504;-79
2021/12/20 19:40:36;;;;;;;31.33;17.95;;;;;;;-3.77;92.32;102655.28;10480189;28;20029;-79
2021/12/20 19:45:37;;;;;;;27.23;14.67;;;;;;;-3.90;92.49;102647.59;10474007;28;20385;-80
2021/12/20 19:50:37;;;;;;;23.13;12.93;;;;;;;-3.80;92.47;102654.88;10474372;28;20021;-81
2021/12/20 19:55:39;;;;;;;29.17;14.70;;;;;;;-3.90;92.53;102639.91;10477416;28;20481;-82
2021/12/20 20:00:40;;;;;;;29.08;13.30;;;;;;;-4.00;92.66;102647.06;10477525;28;20033;-80
2021/12/20 20:05:41;;;;;;;35.80;17.55;;;;;;;-3.99;92.58;102647.31;10473213;28;20025;-81
2021/12/20 20:10:44;;;;;;;22.27;11.23;;;;;;;-4.07;92.11;102641.84;10485995;28;20473;-80
2021/12/20 20:15:46;;;;;;;19.08;9.93;;;;;;;-4.04;92.46;102638.09;10470916;28;20024;-80
2021/12/20 20:20:49;;;;;;;23.17;11.37;;;;;;;-4.17;92.48;102645.72;10476118;28;20032;-79
2021/12/20 20:25:49;;;;;;;26.33;14.05;;;;;;;-4.18;92.29;102641.31;10473296;28;20025;-79
2021/12/20 20:30:50;;;;;;;26.93;16.13;;;;;;;-4.19;92.74;102636.03;10474571;28;20028;-82
2021/12/20 20:35:51;;;;;;;29.93;15.93;;;;;;;-4.15;92.37;102651.06;10469969;28;20053;-82
2021/12/20 20:40:55;;;;;;;43.10;22.50;;;;;;;-4.18;91.91;102642.97;10464253;28;20586;-82
2021/12/20 20:45:55;;;;;;;28.45;16.88;;;;;;;-4.27;92.28;102647.75;10476170;28;20028;-81
2021/12/20 20:50:56;;;;;;;26.93;16.30;;;;;;;-4.29;92.57;102636.41;10462673;28;20475;-83
2021/12/20 20:55:56;;;;;;;22.33;12.93;;;;;;;-4.21;92.48;102638.34;10469421;28;20043;-80
2021/12/20 21:06:19;;;;;;;;;;;;;;;-4.02;92.60;102630.59;10460880;28;20090;-79
2021/12/20 21:11:19;;;;;;;25.33;14.07;;;;;;;-4.20;92.09;102632.53;10470616;28;20304;-80
2021/12/20 21:16:20;;;;;;;24.27;11.80;;;;;;;-4.32;92.49;102635.97;10470795;28;20035;-79
2021/12/20 21:21:21;;;;;;;37.35;16.40;;;;;;;-4.43;92.40;102632.88;10469646;28;20435;-79
2021/12/20 21:26:22;;;;;;;20.33;11.70;;;;;;;-4.41;92.68;102625.44;10445414;28;20104;-79
2021/12/20 21:31:22;;;;;;;40.80;16.50;;;;;;;-4.45;92.56;102620.63;10476735;28;20040;-81
2021/12/20 21:36:23;;;;;;;63.83;33.73;;;;;;;-4.52;92.72;102636.75;10465304;28;20477;-81
2021/12/20 21:41:24;;;;;;;30.50;18.53;;;;;;;-4.60;92.49;102640.81;10478760;28;20041;-81
2021/12/20 21:46:24;;;;;;;25.80;15.17;;;;;;;-4.52;93.06;102654.63;10455414;28;20036;-80
2021/12/20 21:51:25;;;;;;;30.17;16.77;;;;;;;-4.66;93.04;102637.44;10467760;28;20021;-81
2021/12/20 21:56:26;;;;;;;21.90;13.93;;;;;;;-4.62;92.89;102637.16;10471725;28;20063;-80
2021/12/20 22:01:26;;;;;;;32.73;17.07;;;;;;;-4.75;92.89;102633.63;10453218;28;20477;-81
2021/12/20 22:06:47;;;;;;;26.60;14.57;;;;;;;-4.66;92.63;102627.22;10473656;28;20090;-80
2021/12/20 22:11:47;;;;;;;33.43;15.80;;;;;;;-4.69;92.90;102630.97;10444825;28;20090;-78
2021/12/20 22:16:48;;;;;;;46.97;18.33;;;;;;;-4.64;92.49;102629.97;10470379;28;20076;-78
2021/12/20 22:21:48;;;;;;;38.77;17.53;;;;;;;-4.58;92.56;102635.91;10449832;28;20041;-79
2021/12/20 22:26:50;;;;;;;20.87;11.80;;;;;;;-4.68;92.54;102637.91;10453067;28;20029;-80
2021/12/20 22:31:51;;;;;;;36.58;16.30;;;;;;;-4.81;92.26;102635.31;10433914;28;20485;-77
2021/12/20 22:36:51;;;;;;;27.87;15.13;;;;;;;-4.87;91.92;102640.50;10462664;28;20040;-79
2021/12/20 22:41:52;;;;;;;22.20;11.00;;;;;;;-4.86;92.06;102639.78;10459544;28;20527;-79
2021/12/20 22:46:52;;;;;;;17.13;9.77;;;;;;;-4.78;92.13;102644.31;10459311;28;20056;-83
2021/12/20 22:51:53;;;;;;;41.27;18.07;;;;;;;-4.71;92.15;102633.31;10475054;28;20069;-82
2021/12/20 22:56:54;;;;;;;20.03;8.97;;;;;;;-4.75;91.80;102629.41;10457922;28;20485;-83
2021/12/20 23:01:54;;;;;;;27.17;14.57;;;;;;;-4.12;92.24;102623.34;10476243;28;20068;-82
2021/12/20 23:06:55;;;;;;;29.87;14.83;;;;;;;-4.29;92.88;102632.22;10460880;28;20029;-83
2021/12/20 23:11:56;;;;;;;24.30;15.87;;;;;;;-4.67;91.77;102624.44;10459007;28;20097;-83
2021/12/20 23:16:56;;;;;;;24.63;14.50;;;;;;;-4.93;91.38;102621.78;10460011;28;20067;-84
2021/12/20 23:21:57;;;;;;;20.27;12.07;;;;;;;-5.07;91.27;102614.78;10441568;28;20484;-83